Wappingers Falls, New York
Current Conditions -  °F | °C
As of 5:53 PM on Friday 19 Dec 2014 (Local Time) from KPOU Reporting Station
Scattered Clouds Scattered Clouds  
Wind Chill: -4°   Ceiling: Unl
Heat Index:   Visibility: 10mi
Dew Point: -7°   Wind: 7mph
Humidity: 59%   Direction: 350°N
Pressure: 30.12"   Gusts: NA
Location:  41.6°N, 73.91°W
Report Text: KPOU 192253Z AUTO 35006KT 10SM SCT036 00/M07 A3012 RMK AO2 SLP198 T00001072 TSNO
Loading
Personal Weather Stations






























Interactive Weather Map New forecast layout! Learn more

10-Day Weather Forecast

Advertisements
Track Severe Weather on mobile